createdAt,value
2016-10-23T00:03:48.502Z,1008.30
2016-10-23T00:08:46.074Z,1008.34
2016-10-23T00:13:42.974Z,1008.27
2016-10-23T00:18:39.281Z,1008.32
2016-10-23T00:23:36.327Z,1008.26
2016-10-23T00:28:33.521Z,1008.25
2016-10-23T00:33:29.483Z,1008.37
2016-10-23T00:38:27.041Z,1008.19
2016-10-23T00:43:23.123Z,1008.21
2016-10-23T00:48:19.642Z,1008.19
2016-10-23T00:53:16.143Z,1008.10
2016-10-23T00:58:14.953Z,1008.20
2016-10-23T01:03:10.544Z,1008.15
2016-10-23T01:08:06.462Z,1008.33
2016-10-23T01:13:03.585Z,1008.28
2016-10-23T01:18:00.702Z,1008.08
2016-10-23T01:22:57.261Z,1008.18
2016-10-23T01:27:53.482Z,1008.20
2016-10-23T01:32:49.923Z,1008.06
2016-10-23T01:37:46.254Z,1008.13
2016-10-23T01:42:43.362Z,1008.05
2016-10-23T01:47:39.651Z,1007.94
2016-10-23T01:52:36.157Z,1008.00
2016-10-23T01:57:32.703Z,1008.01
2016-10-23T02:02:28.916Z,1007.97
2016-10-23T02:07:25.264Z,1008.03
2016-10-23T02:12:21.715Z,1007.87
2016-10-23T02:17:18.063Z,1007.90
2016-10-23T02:22:15.564Z,1007.92
2016-10-23T02:27:11.764Z,1007.87
2016-10-23T02:32:08.323Z,1007.84
2016-10-23T02:37:04.887Z,1007.77
2016-10-23T02:42:01.224Z,1007.74
2016-10-23T02:47:01.364Z,1007.71
2016-10-23T02:51:57.125Z,1007.70
2016-10-23T02:56:53.437Z,1007.70
2016-10-23T03:01:50.056Z,1007.53
2016-10-23T03:06:46.704Z,1007.58
2016-10-23T03:11:43.207Z,1007.77
2016-10-23T03:16:39.917Z,1007.72
2016-10-23T03:21:36.592Z,1007.74
2016-10-23T03:26:32.944Z,1007.75
2016-10-23T03:31:30.424Z,1007.66
2016-10-23T03:36:26.632Z,1007.78
2016-10-23T03:41:23.982Z,1007.74
2016-10-23T03:46:20.508Z,1007.68
2016-10-23T03:51:17.043Z,1007.77
2016-10-23T03:56:13.516Z,1007.78
2016-10-23T04:06:10.530Z,1007.78
2016-10-23T04:11:07.263Z,1007.82
2016-10-23T04:16:05.710Z,1007.77
2016-10-23T04:21:04.318Z,1007.75
2016-10-23T04:26:00.492Z,1007.74
2016-10-23T04:30:57.222Z,1007.82
2016-10-23T04:35:53.684Z,1007.70
2016-10-23T04:40:51.323Z,1007.62
2016-10-23T04:45:47.545Z,1007.69
2016-10-23T04:50:44.022Z,1007.60
2016-10-23T04:55:41.522Z,1007.68
2016-10-23T05:00:39.080Z,1007.64
2016-10-23T05:10:45.104Z,1007.68
2016-10-23T05:15:41.356Z,1007.57
2016-10-23T05:20:37.874Z,1007.56
2016-10-23T05:25:36.341Z,1007.57
2016-10-23T05:30:33.558Z,1007.59
2016-10-23T05:35:33.363Z,1007.55
2016-10-23T05:40:29.401Z,1007.55
2016-10-23T05:45:29.344Z,1007.57
2016-10-23T05:50:25.617Z,1007.57
2016-10-23T05:55:24.924Z,1007.59
2016-10-23T06:00:21.889Z,1007.64
2016-10-23T06:05:20.016Z,1007.75
2016-10-23T06:10:19.671Z,1007.65
2016-10-23T06:15:16.260Z,1007.73
2016-10-23T06:25:19.877Z,1007.78
2016-10-23T06:30:17.254Z,1007.75
2016-10-23T06:35:15.272Z,1007.83
2016-10-23T06:40:16.428Z,1007.80
2016-10-23T06:45:11.819Z,1007.86
2016-10-23T06:50:08.587Z,1007.84
2016-10-23T06:55:04.886Z,1007.87
2016-10-23T07:00:01.428Z,1007.90
2016-10-23T07:04:58.398Z,1007.89
2016-10-23T07:09:54.847Z,1007.77
2016-10-23T07:14:51.334Z,1007.92
2016-10-23T07:19:48.498Z,1007.86
2016-10-23T07:24:46.177Z,1007.99
2016-10-23T07:29:42.580Z,1007.93
2016-10-23T07:34:38.874Z,1007.94
2016-10-23T07:39:35.980Z,1007.97
2016-10-23T07:44:33.721Z,1008.04
2016-10-23T07:49:29.970Z,1007.98
2016-10-23T07:54:26.600Z,1008.13
2016-10-23T07:59:23.048Z,1008.01
2016-10-23T08:04:19.657Z,1008.05
2016-10-23T08:09:16.437Z,1008.16
2016-10-23T08:14:13.276Z,1008.16
2016-10-23T08:24:12.986Z,1008.14
2016-10-23T08:29:09.792Z,1008.20
2016-10-23T08:34:06.014Z,1008.12
2016-10-23T08:39:02.530Z,1008.10
2016-10-23T08:43:59.230Z,1008.13
2016-10-23T08:48:57.159Z,1008.11
2016-10-23T08:53:53.672Z,1008.04
2016-10-23T08:58:50.282Z,1008.06
2016-10-23T09:03:47.022Z,1008.05
2016-10-23T09:08:43.822Z,1008.04
2016-10-23T09:13:40.389Z,1007.97
2016-10-23T09:18:37.357Z,1008.06
2016-10-23T09:23:33.581Z,1008.00
2016-10-23T09:28:30.184Z,1007.98
2016-10-23T09:33:27.007Z,1008.03
2016-10-23T09:38:24.915Z,1008.10
2016-10-23T09:43:21.365Z,1007.93
2016-10-23T09:48:17.600Z,1007.89
2016-10-23T09:53:14.155Z,1008.00
2016-10-23T09:58:11.062Z,1007.88
2016-10-23T10:03:08.324Z,1007.95
2016-10-23T10:08:04.842Z,1007.83
2016-10-23T10:13:01.010Z,1007.82
2016-10-23T10:17:57.331Z,1007.80
2016-10-23T10:22:53.640Z,1007.82
2016-10-23T10:27:50.452Z,1007.73
2016-10-23T10:32:47.206Z,1007.65
2016-10-23T10:37:43.995Z,1007.67
2016-10-23T10:42:40.891Z,1007.61
2016-10-23T10:47:37.265Z,1007.63
2016-10-23T10:52:33.447Z,1007.55
2016-10-23T10:57:29.728Z,1007.47
2016-10-23T11:02:26.427Z,1007.49
2016-10-23T11:07:23.036Z,1007.47
2016-10-23T11:12:20.282Z,1007.50
2016-10-23T11:17:16.639Z,1007.43
2016-10-23T11:22:13.898Z,1007.36
2016-10-23T11:27:10.893Z,1007.28
2016-10-23T11:32:07.335Z,1007.25
2016-10-23T11:37:04.122Z,1007.31
2016-10-23T11:42:00.573Z,1007.16
2016-10-23T11:46:57.443Z,1007.09
2016-10-23T11:51:53.866Z,1007.08
2016-10-23T11:56:50.893Z,1007.01
2016-10-23T12:01:47.327Z,1007.03
2016-10-23T12:06:43.246Z,1006.92
2016-10-23T12:11:39.811Z,1006.80
2016-10-23T12:16:36.033Z,1006.85
2016-10-23T12:21:32.217Z,1006.93
2016-10-23T12:26:28.708Z,1006.83
2016-10-23T12:31:24.847Z,1006.75
2016-10-23T12:36:22.170Z,1006.71
2016-10-23T12:41:18.698Z,1006.70
2016-10-23T12:46:15.261Z,1006.67
2016-10-23T12:51:11.962Z,1006.58
2016-10-23T12:56:08.259Z,1006.61
2016-10-23T13:01:05.256Z,1006.63
2016-10-23T13:06:01.770Z,1006.61
2016-10-23T13:10:58.177Z,1006.59
2016-10-23T13:15:54.527Z,1006.45
2016-10-23T13:20:51.334Z,1006.53
2016-10-23T13:25:47.882Z,1006.52
2016-10-23T13:30:44.867Z,1006.48
2016-10-23T13:35:41.334Z,1006.53
2016-10-23T13:40:38.903Z,1006.48
2016-10-23T13:45:35.986Z,1006.48
2016-10-23T13:50:32.363Z,1006.51
2016-10-23T13:55:30.013Z,1006.56
2016-10-23T14:00:26.073Z,1006.56
2016-10-23T14:05:22.573Z,1006.56
2016-10-23T14:10:19.044Z,1006.42
2016-10-23T14:15:15.571Z,1006.46
2016-10-23T14:20:11.991Z,1006.43
2016-10-23T14:25:08.414Z,1006.39
2016-10-23T14:30:05.092Z,1006.36
2016-10-23T14:35:01.799Z,1006.40
2016-10-23T14:39:58.481Z,1006.34
2016-10-23T14:44:54.980Z,1006.25
2016-10-23T14:49:53.732Z,1006.26
2016-10-23T14:54:49.801Z,1006.23
2016-10-23T14:59:46.731Z,1006.13
2016-10-23T15:04:42.958Z,1006.19
2016-10-23T15:09:40.334Z,1006.14
2016-10-23T15:14:36.637Z,1006.20
2016-10-23T15:19:33.131Z,1006.26
2016-10-23T15:24:29.603Z,1006.28
2016-10-23T15:29:25.958Z,1006.21
2016-10-23T15:34:22.445Z,1006.22
2016-10-23T15:39:18.777Z,1006.26
2016-10-23T15:44:14.987Z,1006.31
2016-10-23T15:49:11.241Z,1006.32
2016-10-23T15:54:07.595Z,1006.32
2016-10-23T15:59:03.700Z,1006.21
2016-10-23T16:04:00.647Z,1006.18
2016-10-23T16:08:57.031Z,1006.30
2016-10-23T16:13:53.491Z,1006.31
2016-10-23T16:18:49.850Z,1006.29
2016-10-23T16:23:46.287Z,1006.45
2016-10-23T16:28:42.617Z,1006.53
2016-10-23T16:33:39.357Z,1006.57
2016-10-23T16:38:37.257Z,1006.66
2016-10-23T16:43:33.319Z,1006.72
2016-10-23T16:48:29.757Z,1006.75
2016-10-23T16:53:26.294Z,1006.77
2016-10-23T16:58:22.286Z,1006.81
2016-10-23T17:03:19.133Z,1006.73
2016-10-23T17:08:15.466Z,1006.68
2016-10-23T17:13:11.579Z,1006.77
2016-10-23T17:18:10.506Z,1006.76
2016-10-23T17:23:06.170Z,1006.68
2016-10-23T17:28:02.511Z,1006.67
2016-10-23T17:32:58.996Z,1006.74
2016-10-23T17:37:55.477Z,1006.71
2016-10-23T17:42:51.884Z,1006.67
2016-10-23T17:47:49.316Z,1006.55
2016-10-23T17:52:45.578Z,1006.52
2016-10-23T17:57:42.374Z,1006.43
2016-10-23T18:02:38.791Z,1006.45
2016-10-23T18:07:35.152Z,1006.47
2016-10-23T18:12:31.647Z,1006.44
2016-10-23T18:17:27.835Z,1006.43
2016-10-23T18:22:24.236Z,1006.51
2016-10-23T18:27:20.775Z,1006.43
2016-10-23T18:32:17.292Z,1006.46
2016-10-23T18:37:13.399Z,1006.37
2016-10-23T18:42:09.814Z,1006.40
2016-10-23T18:47:06.185Z,1006.21
2016-10-23T18:52:02.696Z,1006.38
2016-10-23T18:56:59.203Z,1006.39
2016-10-23T19:01:55.692Z,1006.36
2016-10-23T19:06:52.259Z,1006.42
2016-10-23T19:11:48.709Z,1006.51
2016-10-23T19:16:45.113Z,1006.54
2016-10-23T19:21:41.640Z,1006.64
2016-10-23T19:26:37.888Z,1006.77
2016-10-23T19:31:36.947Z,1006.91
2016-10-23T19:36:32.796Z,1006.90
2016-10-23T19:41:29.868Z,1006.85
2016-10-23T19:46:26.668Z,1006.91
2016-10-23T19:51:23.543Z,1007.00
2016-10-23T19:56:19.965Z,1006.97
2016-10-23T20:01:16.028Z,1007.00
2016-10-23T20:06:13.296Z,1006.86
2016-10-23T20:11:09.638Z,1006.78
2016-10-23T20:16:06.356Z,1006.89
2016-10-23T20:21:02.946Z,1006.80
2016-10-23T20:25:59.319Z,1006.82
2016-10-23T20:30:55.466Z,1006.97
2016-10-23T20:35:52.029Z,1006.92
2016-10-23T20:40:49.585Z,1006.81
2016-10-23T20:45:45.556Z,1006.76
2016-10-23T20:50:41.683Z,1006.73
2016-10-23T20:55:38.101Z,1006.73
2016-10-23T21:00:34.532Z,1006.73
2016-10-23T21:05:30.954Z,1006.73
2016-10-23T21:10:28.608Z,1006.65
2016-10-23T21:15:24.702Z,1006.74
2016-10-23T21:20:21.326Z,1006.74
2016-10-23T21:25:17.777Z,1006.88
2016-10-23T21:30:14.118Z,1006.75
2016-10-23T21:35:10.586Z,1006.80
2016-10-23T21:40:07.149Z,1006.80
2016-10-23T21:45:03.598Z,1006.85
2016-10-23T21:50:00.075Z,1006.80
2016-10-23T21:54:56.413Z,1006.77
2016-10-23T21:59:52.821Z,1006.79
2016-10-23T22:04:49.424Z,1006.82
2016-10-23T22:09:45.893Z,1006.82
2016-10-23T22:14:42.222Z,1006.80
2016-10-23T22:19:38.520Z,1006.82
2016-10-23T22:24:34.951Z,1006.93
2016-10-23T22:29:31.372Z,1007.00
2016-10-23T22:34:27.796Z,1006.94
2016-10-23T22:39:25.410Z,1006.83
2016-10-23T22:44:21.379Z,1006.89
2016-10-23T22:49:17.773Z,1006.86
2016-10-23T22:54:13.992Z,1006.77
2016-10-23T22:59:10.322Z,1006.73
2016-10-23T23:04:06.818Z,1006.68
2016-10-23T23:09:03.255Z,1006.71
2016-10-23T23:13:59.602Z,1006.76
2016-10-23T23:18:56.172Z,1006.79
2016-10-23T23:23:52.566Z,1006.74
2016-10-23T23:28:48.943Z,1006.62
2016-10-23T23:33:45.558Z,1006.62
2016-10-23T23:38:42.013Z,1006.66
2016-10-23T23:43:38.405Z,1006.66
2016-10-23T23:48:34.715Z,1006.77
2016-10-23T23:53:31.118Z,1006.61
2016-10-23T23:58:27.775Z,1006.76
